Time;durP1;ratioP1;P1;durP2;ratioP2;P2;SDS_P1;SDS_P2;PMS_P1;PMS_P2;Temp;Humidity;BMP_temperature;BMP_pressure;BME280_temperature;BME280_humidity;BME280_pressure;Samples;Min_cycle;Max_cycle;Signal;HPM_P1;HPM_P2
2022/04/24 00:01:55;;;;;;;9.32;6.50;;;10.50;99.90;;;;;;4998917;28;20034;-71
2022/04/24 00:04:21;;;;;;;11.30;6.70;;;10.60;99.90;;;;;;4987964;28;20035;-71
2022/04/24 00:06:46;;;;;;;9.88;6.47;;;10.40;99.90;;;;;;4997027;28;20038;-71
2022/04/24 00:09:16;;;;;;;10.45;6.72;;;10.40;99.90;;;;;;5009935;28;20033;-71
2022/04/24 00:11:42;;;;;;;10.30;6.47;;;10.40;99.90;;;;;;4995625;28;20038;-71
2022/04/24 00:14:10;;;;;;;10.38;6.90;;;10.30;99.90;;;;;;4993913;28;20041;-71
2022/04/24 00:16:37;;;;;;;9.93;6.53;;;10.30;99.90;;;;;;4995374;28;20498;-71
2022/04/24 00:19:03;;;;;;;11.43;6.85;;;10.30;99.90;;;;;;5011478;28;20031;-72
2022/04/24 00:21:29;;;;;;;11.30;6.40;;;10.20;99.90;;;;;;4979647;28;20506;-72
2022/04/24 00:23:55;;;;;;;13.60;7.38;;;10.30;99.90;;;;;;4998953;28;20092;-71
2022/04/24 00:26:20;;;;;;;10.75;6.13;;;10.20;99.90;;;;;;5015787;28;20038;-72
2022/04/24 00:28:46;;;;;;;11.40;6.45;;;10.20;99.90;;;;;;5014297;28;20041;-72
2022/04/24 00:31:11;;;;;;;9.38;6.45;;;10.20;99.90;;;;;;5012261;28;20042;-72
2022/04/24 00:33:37;;;;;;;10.77;6.35;;;10.20;99.90;;;;;;4979828;28;20128;-71
2022/04/24 00:36:03;;;;;;;10.48;6.18;;;10.20;99.90;;;;;;5014648;28;20059;-71
2022/04/24 00:38:31;;;;;;;9.65;6.28;;;10.00;99.90;;;;;;5007581;28;20501;-72
2022/04/24 00:40:56;;;;;;;9.45;6.25;;;10.10;99.90;;;;;;5028485;28;20050;-71
2022/04/24 00:43:22;;;;;;;10.20;7.00;;;10.10;99.90;;;;;;5001738;28;20045;-71
2022/04/24 00:45:50;;;;;;;12.93;7.30;;;10.10;99.90;;;;;;5015266;28;20044;-71
2022/04/24 00:48:16;;;;;;;9.95;6.57;;;10.00;99.90;;;;;;5010432;28;20038;-71
2022/04/24 00:50:43;;;;;;;10.18;6.50;;;9.90;99.90;;;;;;4996937;28;20553;-72
2022/04/24 00:53:09;;;;;;;10.48;6.97;;;10.00;99.90;;;;;;5013451;28;20077;-72
2022/04/24 00:55:35;;;;;;;9.95;6.90;;;9.90;99.90;;;;;;4998740;28;20049;-72
2022/04/24 00:58:00;;;;;;;11.25;6.95;;;10.00;99.90;;;;;;4982500;28;20034;-71
2022/04/24 01:00:26;;;;;;;9.23;6.15;;;10.00;99.90;;;;;;5009116;28;20080;-71
2022/04/24 01:02:52;;;;;;;12.02;6.53;;;10.10;99.90;;;;;;5015085;28;20092;-71
2022/04/24 01:05:18;;;;;;;10.70;6.97;;;9.90;99.90;;;;;;5002101;28;20046;-71
2022/04/24 01:07:44;;;;;;;10.95;6.70;;;10.00;99.90;;;;;;5028057;28;20130;-72
2022/04/24 01:10:09;;;;;;;11.68;6.57;;;9.70;99.90;;;;;;5008022;28;20039;-71
2022/04/24 01:12:35;;;;;;;10.38;6.32;;;9.70;99.90;;;;;;5008329;28;20050;-71
2022/04/24 01:15:01;;;;;;;9.25;5.97;;;9.70;99.90;;;;;;4998665;28;20045;-71
2022/04/24 01:17:27;;;;;;;9.63;6.78;;;9.80;99.90;;;;;;4998246;28;20088;-71
2022/04/24 01:19:53;;;;;;;11.32;6.72;;;9.80;99.90;;;;;;4999359;28;20137;-71
2022/04/24 01:22:19;;;;;;;10.30;7.03;;;9.90;99.90;;;;;;4995013;28;20046;-71
2022/04/24 01:24:45;;;;;;;10.27;6.70;;;9.80;99.90;;;;;;5027624;28;20042;-71
2022/04/24 01:27:10;;;;;;;10.57;6.55;;;9.90;99.90;;;;;;4978851;28;20053;-71
2022/04/24 01:29:36;;;;;;;10.43;6.63;;;9.90;99.90;;;;;;4998910;28;20054;-72
2022/04/24 01:32:02;;;;;;;10.13;6.57;;;9.90;99.90;;;;;;4991886;28;20043;-71
2022/04/24 01:34:27;;;;;;;10.15;6.82;;;9.80;99.90;;;;;;5004803;28;20038;-71
2022/04/24 01:36:53;;;;;;;12.20;6.30;;;9.70;99.90;;;;;;5014283;28;20030;-71
2022/04/24 01:39:18;;;;;;;10.23;6.72;;;9.70;99.90;;;;;;4988734;28;20038;-71
2022/04/24 01:41:45;;;;;;;9.10;6.63;;;9.50;99.90;;;;;;5009251;28;20170;-71
2022/04/24 01:44:11;;;;;;;10.27;6.40;;;9.60;99.90;;;;;;4983717;28;20569;-71
2022/04/24 01:46:36;;;;;;;10.43;6.80;;;9.60;99.90;;;;;;5012366;28;20124;-71
2022/04/24 01:49:02;;;;;;;10.10;6.50;;;9.50;99.90;;;;;;4994220;28;20048;-72
2022/04/24 01:51:28;;;;;;;10.60;6.97;;;9.70;99.90;;;;;;4994714;28;20134;-71
2022/04/24 01:53:54;;;;;;;8.88;6.13;;;9.60;99.90;;;;;;4999528;28;20546;-72
2022/04/24 01:56:19;;;;;;;11.35;6.75;;;9.50;99.90;;;;;;4994248;28;20044;-71
2022/04/24 01:58:45;;;;;;;11.02;7.07;;;9.50;99.90;;;;;;4994390;28;20038;-71
2022/04/24 02:01:10;;;;;;;9.88;6.70;;;9.40;99.90;;;;;;4978380;28;20491;-71
2022/04/24 02:03:37;;;;;;;10.15;6.47;;;9.40;99.90;;;;;;5010186;28;20038;-71
2022/04/24 02:06:04;;;;;;;9.52;6.43;;;9.40;99.90;;;;;;5012970;28;20406;-71
2022/04/24 02:08:31;;;;;;;10.80;6.45;;;9.50;99.90;;;;;;5001284;28;20505;-71
2022/04/24 02:10:58;;;;;;;9.95;6.78;;;9.30;99.90;;;;;;5001891;28;20050;-71
2022/04/24 02:13:23;;;;;;;9.38;6.68;;;9.30;99.90;;;;;;4994137;28;20043;-71
2022/04/24 02:15:50;;;;;;;11.68;7.47;;;9.40;99.90;;;;;;5009716;28;20510;-71
2022/04/24 02:18:15;;;;;;;9.43;6.90;;;9.20;99.90;;;;;;4978041;28;20081;-71
2022/04/24 02:20:41;;;;;;;10.55;6.70;;;9.10;99.90;;;;;;4996776;28;20041;-71
2022/04/24 02:23:08;;;;;;;11.38;7.38;;;9.10;99.90;;;;;;5004874;28;20038;-71
2022/04/24 02:25:34;;;;;;;9.30;6.57;;;9.10;99.90;;;;;;4986330;28;20042;-71
2022/04/24 02:27:59;;;;;;;10.35;6.47;;;9.20;99.90;;;;;;4994027;28;20506;-71
2022/04/24 02:30:30;;;;;;;9.65;6.47;;;9.20;99.90;;;;;;5009894;28;20039;-71
2022/04/24 02:32:59;;;;;;;10.35;6.55;;;9.20;99.90;;;;;;5010701;28;20038;-71
2022/04/24 02:35:27;;;;;;;10.23;6.35;;;9.10;99.90;;;;;;5008242;28;20041;-71
2022/04/24 02:37:53;;;;;;;11.13;6.68;;;9.10;99.90;;;;;;4990245;28;20045;-71
2022/04/24 02:40:22;;;;;;;10.20;6.72;;;9.10;99.90;;;;;;4978267;28;20035;-72
2022/04/24 02:42:51;;;;;;;11.90;7.30;;;9.10;99.90;;;;;;5003108;28;20038;-72
2022/04/24 02:45:18;;;;;;;10.60;6.88;;;8.90;99.90;;;;;;5026329;28;20116;-72
2022/04/24 02:47:44;;;;;;;10.07;6.93;;;8.90;99.90;;;;;;5025980;28;20043;-72
2022/04/24 02:50:10;;;;;;;10.20;6.82;;;8.80;99.90;;;;;;4996478;28;20053;-72
2022/04/24 02:52:56;;;;;;;10.45;7.10;;;8.90;99.90;;;;;;4993611;28;20038;-71
2022/04/24 02:55:23;;;;;;;11.43;7.63;;;8.80;99.90;;;;;;4992351;28;20050;-71
2022/04/24 02:57:49;;;;;;;10.27;6.78;;;8.80;99.90;;;;;;4992728;28;20049;-71
2022/04/24 03:00:22;;;;;;;10.63;7.43;;;8.80;99.90;;;;;;5009517;28;20034;-71
2022/04/24 03:02:49;;;;;;;10.63;7.47;;;8.80;99.90;;;;;;4977007;28;20545;-71
2022/04/24 03:05:24;;;;;;;10.55;7.35;;;8.80;99.90;;;;;;4977045;28;20038;-71
2022/04/24 03:07:50;;;;;;;9.50;6.70;;;8.80;99.90;;;;;;5025791;28;20046;-71
2022/04/24 03:10:16;;;;;;;9.85;7.38;;;8.90;99.90;;;;;;4976729;28;20414;-71
2022/04/24 03:12:43;;;;;;;12.20;8.00;;;8.90;99.90;;;;;;4976768;28;20042;-71
2022/04/24 03:15:12;;;;;;;12.23;7.85;;;8.90;99.90;;;;;;5009087;28;20038;-71
2022/04/24 03:17:38;;;;;;;11.45;8.18;;;8.90;99.90;;;;;;4976640;28;20042;-72
2022/04/24 03:20:06;;;;;;;12.32;8.02;;;8.60;99.90;;;;;;5025608;28;20057;-71
2022/04/24 03:22:33;;;;;;;10.27;7.38;;;8.70;99.90;;;;;;5009490;28;20434;-72
2022/04/24 03:25:00;;;;;;;11.10;7.55;;;8.70;99.90;;;;;;4977434;28;20033;-72
2022/04/24 03:27:25;;;;;;;10.18;6.82;;;8.60;99.90;;;;;;4992981;28;20511;-72
2022/04/24 03:29:51;;;;;;;10.23;7.15;;;8.60;99.90;;;;;;5009041;28;20041;-72
2022/04/24 03:32:17;;;;;;;11.05;6.97;;;8.60;99.90;;;;;;4992767;28;20060;-72
2022/04/24 03:34:42;;;;;;;11.93;7.78;;;8.60;99.90;;;;;;4982891;28;20413;-72
2022/04/24 03:37:08;;;;;;;11.70;7.30;;;8.60;99.90;;;;;;4976524;28;20089;-72
2022/04/24 03:39:34;;;;;;;11.20;8.15;;;8.60;99.90;;;;;;4981595;28;20400;-71
2022/04/24 03:42:00;;;;;;;11.32;7.80;;;8.50;99.90;;;;;;4978343;28;20034;-71
2022/04/24 03:44:26;;;;;;;12.00;7.03;;;8.40;99.90;;;;;;5005398;28;20041;-72
2022/04/24 03:46:52;;;;;;;12.02;7.63;;;8.60;99.90;;;;;;5009452;28;20041;-72
2022/04/24 03:49:17;;;;;;;10.68;7.07;;;8.40;99.90;;;;;;5010515;28;20437;-72
2022/04/24 03:51:43;;;;;;;11.35;7.20;;;8.40;99.90;;;;;;4976324;28;20038;-72
2022/04/24 03:54:08;;;;;;;9.57;6.65;;;8.30;99.90;;;;;;5012862;28;20046;-72
2022/04/24 03:56:35;;;;;;;12.15;7.32;;;8.50;99.90;;;;;;5029179;28;20088;-72
2022/04/24 03:59:01;;;;;;;12.90;7.60;;;8.50;99.90;;;;;;4980577;28;20048;-72
2022/04/24 04:01:27;;;;;;;12.07;7.97;;;8.20;99.90;;;;;;4980339;28;20038;-72
2022/04/24 04:03:53;;;;;;;13.25;7.60;;;8.20;99.90;;;;;;5029738;28;20041;-72
2022/04/24 04:06:19;;;;;;;10.43;6.97;;;8.20;99.90;;;;;;4996533;28;20157;-72
2022/04/24 04:08:44;;;;;;;10.13;6.70;;;8.30;99.90;;;;;;4980342;28;20125;-71
2022/04/24 04:11:10;;;;;;;10.63;7.63;;;8.40;99.90;;;;;;4996342;28;20133;-71
2022/04/24 04:13:36;;;;;;;10.65;7.25;;;8.30;99.90;;;;;;4996596;28;20046;-72
2022/04/24 04:16:01;;;;;;;11.07;7.57;;;8.40;99.90;;;;;;4996219;28;20038;-72
2022/04/24 04:18:27;;;;;;;11.68;7.18;;;8.40;99.90;;;;;;4996149;28;20418;-72
2022/04/24 04:20:52;;;;;;;11.07;7.32;;;8.40;99.90;;;;;;4979882;28;20058;-72
2022/04/24 04:23:18;;;;;;;11.50;7.50;;;8.30;99.90;;;;;;4996449;28;20046;-71
2022/04/24 04:25:44;;;;;;;9.88;6.50;;;8.30;99.90;;;;;;5008890;28;20049;-72
2022/04/24 04:28:09;;;;;;;11.00;7.80;;;8.30;99.90;;;;;;5007965;28;20078;-72
2022/04/24 04:30:35;;;;;;;10.90;7.78;;;8.40;99.90;;;;;;4991499;28;20034;-72
2022/04/24 04:33:01;;;;;;;10.25;6.85;;;8.30;99.90;;;;;;5015897;28;20038;-72
2022/04/24 04:35:27;;;;;;;11.57;6.85;;;8.30;99.90;;;;;;4984778;28;20076;-72
2022/04/24 04:37:52;;;;;;;11.77;6.63;;;8.20;99.90;;;;;;5013432;28;20513;-71
2022/04/24 04:40:20;;;;;;;11.63;7.10;;;8.20;99.90;;;;;;5009874;28;20085;-72
2022/04/24 04:42:46;;;;;;;11.75;7.15;;;8.30;99.90;;;;;;4996844;28;20045;-72
2022/04/24 04:45:12;;;;;;;11.02;7.07;;;8.10;99.90;;;;;;4996010;28;20080;-72
2022/04/24 04:47:37;;;;;;;12.10;7.00;;;8.10;99.90;;;;;;5010077;28;20043;-72
2022/04/24 04:50:04;;;;;;;11.18;7.07;;;8.00;99.90;;;;;;4997041;28;20069;-72
2022/04/24 04:52:29;;;;;;;12.57;6.85;;;8.10;99.90;;;;;;4995932;28;20046;-72
2022/04/24 04:54:55;;;;;;;11.32;6.60;;;8.20;99.90;;;;;;4995361;28;20065;-72
2022/04/24 04:57:20;;;;;;;11.55;7.38;;;8.20;99.90;;;;;;4995459;28;20125;-72
2022/04/24 04:59:46;;;;;;;12.27;6.60;;;8.20;99.90;;;;;;4995541;28;20035;-72
2022/04/24 05:02:11;;;;;;;10.18;6.32;;;8.30;99.90;;;;;;5028294;28;20043;-71
2022/04/24 05:04:38;;;;;;;11.65;7.22;;;8.30;99.90;;;;;;4994622;28;20070;-72
2022/04/24 05:07:04;;;;;;;11.52;6.45;;;8.20;99.90;;;;;;5028248;28;20105;-72
2022/04/24 05:09:30;;;;;;;11.45;6.63;;;8.30;99.90;;;;;;5028010;28;20050;-72
2022/04/24 05:11:55;;;;;;;11.27;6.93;;;8.20;99.90;;;;;;5027935;28;20045;-72
2022/04/24 05:14:21;;;;;;;11.93;6.65;;;8.30;99.90;;;;;;4995262;28;20109;-72
2022/04/24 05:16:46;;;;;;;10.02;6.10;;;8.40;99.90;;;;;;5011377;28;20049;-72
2022/04/24 05:19:12;;;;;;;12.32;6.10;;;8.50;99.90;;;;;;4978715;28;20046;-71
2022/04/24 05:21:37;;;;;;;11.43;6.97;;;8.50;99.90;;;;;;5010958;28;20387;-72
2022/04/24 05:24:03;;;;;;;10.93;6.68;;;8.50;99.90;;;;;;5011081;28;20077;-72
2022/04/24 05:26:29;;;;;;;12.52;6.93;;;8.60;99.90;;;;;;5003605;28;20034;-72
2022/04/24 05:28:54;;;;;;;11.63;7.15;;;8.50;99.90;;;;;;4986852;28;20034;-72
2022/04/24 05:31:20;;;;;;;10.32;7.13;;;8.60;99.90;;;;;;5007499;28;20129;-72
2022/04/24 05:33:46;;;;;;;10.88;7.55;;;8.50;99.90;;;;;;4987824;28;20129;-72
2022/04/24 05:36:12;;;;;;;11.55;7.72;;;8.50;99.90;;;;;;5024464;28;20042;-72
2022/04/24 05:38:38;;;;;;;10.75;6.32;;;8.60;99.90;;;;;;5026050;28;20066;-72
2022/04/24 05:41:04;;;;;;;11.38;7.68;;;8.60;99.90;;;;;;4990720;28;20046;-72
2022/04/24 05:43:30;;;;;;;12.65;7.72;;;8.60;99.90;;;;;;5026446;28;20046;-72
2022/04/24 05:45:56;;;;;;;13.93;8.43;;;8.60;99.90;;;;;;5026383;28;20124;-72
2022/04/24 05:48:22;;;;;;;12.02;7.40;;;8.70;99.90;;;;;;5018381;28;20547;-72
2022/04/24 05:50:48;;;;;;;13.50;7.53;;;8.80;99.90;;;;;;4970528;28;20135;-72
2022/04/24 05:53:14;;;;;;;14.57;7.93;;;8.80;99.90;;;;;;5004953;28;20054;-72
2022/04/24 05:55:40;;;;;;;13.07;7.63;;;8.90;99.90;;;;;;5006175;28;20096;-72
2022/04/24 05:58:06;;;;;;;13.23;8.32;;;8.90;99.90;;;;;;5023704;28;20038;-72
2022/04/24 06:00:32;;;;;;;13.68;8.65;;;8.90;99.90;;;;;;4971474;28;20061;-72
2022/04/24 06:02:57;;;;;;;13.63;8.45;;;9.00;99.90;;;;;;4996584;28;20091;-72
2022/04/24 06:05:23;;;;;;;12.80;7.88;;;9.10;99.90;;;;;;4981555;28;20256;-72
2022/04/24 06:07:49;;;;;;;15.48;7.90;;;9.10;99.90;;;;;;4981559;28;20153;-72
2022/04/24 06:10:15;;;;;;;12.95;7.80;;;9.20;99.90;;;;;;4985876;28;20048;-71
2022/04/24 06:12:44;;;;;;;13.30;7.68;;;9.30;99.90;;;;;;4977459;28;20117;-72
2022/04/24 06:15:15;;;;;;;14.60;9.18;;;9.40;99.90;;;;;;4974057;28;20055;-72
2022/04/24 06:17:40;;;;;;;12.70;6.80;;;9.40;99.90;;;;;;5020337;28;20152;-72
2022/04/24 06:20:07;;;;;;;11.32;7.07;;;9.50;99.90;;;;;;5025249;28;20078;-72
2022/04/24 06:22:46;;;;;;;11.95;8.02;;;9.70;99.90;;;;;;4984160;28;20042;-72
2022/04/24 06:25:33;;;;;;;12.63;8.10;;;9.60;99.90;;;;;;4992919;28;20039;-72
2022/04/24 06:28:01;;;;;;;13.38;8.02;;;9.60;99.90;;;;;;4998750;28;20046;-72
2022/04/24 06:30:28;;;;;;;13.40;7.85;;;9.50;99.90;;;;;;5006140;28;20042;-72
2022/04/24 06:32:55;;;;;;;12.15;7.65;;;9.50;99.90;;;;;;4988515;28;20454;-72
2022/04/24 06:35:21;;;;;;;13.52;8.30;;;9.70;99.90;;;;;;5025768;28;20055;-72
2022/04/24 06:37:48;;;;;;;13.38;7.05;;;9.60;99.90;;;;;;4992377;28;20487;-72
2022/04/24 06:40:15;;;;;;;14.00;7.80;;;9.60;99.90;;;;;;4973968;28;20097;-72
2022/04/24 06:42:51;;;;;;;11.55;7.18;;;9.70;99.90;;;;;;5016073;28;20047;-72
2022/04/24 06:45:24;;;;;;;11.00;6.90;;;9.70;99.90;;;;;;4973519;28;20046;-72
2022/04/24 06:47:51;;;;;;;10.57;6.38;;;9.80;99.90;;;;;;4976231;28;20181;-72
2022/04/24 06:50:17;;;;;;;11.07;6.75;;;9.80;99.90;;;;;;5026228;28;20458;-72
2022/04/24 06:52:42;;;;;;;11.95;6.75;;;9.80;99.90;;;;;;4987776;28;20051;-72
2022/04/24 06:55:08;;;;;;;10.20;6.13;;;9.80;99.90;;;;;;5024374;28;20044;-72
2022/04/24 06:57:34;;;;;;;11.13;6.13;;;9.70;99.90;;;;;;5007714;28;20038;-71
2022/04/24 07:00:00;;;;;;;12.07;6.43;;;10.00;99.90;;;;;;5017594;28;20041;-72
2022/04/24 07:02:26;;;;;;;10.95;6.22;;;9.80;99.90;;;;;;5008685;28;20482;-72
2022/04/24 07:04:51;;;;;;;9.35;5.63;;;9.90;99.90;;;;;;4976334;28;20088;-72
2022/04/24 07:07:17;;;;;;;7.88;3.97;;;9.90;99.90;;;;;;4992314;28;20129;-72
2022/04/24 07:09:42;;;;;;;9.70;5.38;;;10.10;99.90;;;;;;5025046;28;20459;-71
2022/04/24 07:12:08;;;;;;;8.77;5.13;;;10.10;99.90;;;;;;4972945;28;20512;-72
2022/04/24 07:14:34;;;;;;;9.32;4.90;;;10.10;99.90;;;;;;4990489;28;20446;-71
2022/04/24 07:16:59;;;;;;;10.18;4.63;;;10.10;99.90;;;;;;5008250;28;20042;-72
2022/04/24 07:19:25;;;;;;;7.18;3.83;;;10.00;99.90;;;;;;4984461;28;20109;-71
2022/04/24 07:21:50;;;;;;;11.27;3.88;;;10.10;99.90;;;;;;4996075;28;20454;-72
2022/04/24 07:24:16;;;;;;;8.15;4.05;;;10.10;99.90;;;;;;5012017;28;20402;-72
2022/04/24 07:26:42;;;;;;;8.75;4.13;;;10.10;99.90;;;;;;5011325;28;20096;-72
2022/04/24 07:29:08;;;;;;;8.23;3.33;;;10.30;99.90;;;;;;4983028;28;20124;-72
2022/04/24 07:31:33;;;;;;;8.15;3.95;;;10.60;99.90;;;;;;5024584;28;20045;-72
2022/04/24 07:33:59;;;;;;;7.75;3.47;;;10.70;99.90;;;;;;4986226;28;20457;-71
2022/04/24 07:36:24;;;;;;;8.05;3.25;;;10.90;99.90;;;;;;4976010;28;20046;-72
2022/04/24 07:38:50;;;;;;;8.70;3.17;;;10.90;99.90;;;;;;4991160;28;20065;-74
2022/04/24 07:41:16;;;;;;;7.35;2.97;;;11.00;99.90;;;;;;4991456;28;20414;-77
2022/04/24 07:43:48;;;;;;;7.45;3.20;;;11.00;99.90;;;;;;4976115;28;20420;-77
2022/04/24 07:46:17;;;;;;;7.85;3.47;;;10.90;99.90;;;;;;5024309;28;20102;-72
2022/04/24 07:48:42;;;;;;;5.72;2.45;;;11.00;99.90;;;;;;4972057;28;20503;-72
2022/04/24 07:51:08;;;;;;;8.55;3.15;;;11.20;99.90;;;;;;4998590;28;20045;-72
2022/04/24 07:53:34;;;;;;;7.72;3.08;;;11.30;99.40;;;;;;4975778;28;20050;-73
2022/04/24 07:55:59;;;;;;;7.00;2.92;;;11.40;99.90;;;;;;5024122;28;20050;-72
2022/04/24 07:58:25;;;;;;;9.15;3.35;;;11.60;99.50;;;;;;5024691;28;20034;-72
2022/04/24 08:00:50;;;;;;;8.48;3.25;;;11.80;99.40;;;;;;5023915;28;20046;-72
2022/04/24 08:03:19;;;;;;;7.57;2.33;;;12.00;99.00;;;;;;4991463;28;20078;-72
2022/04/24 08:05:50;;;;;;;6.63;2.58;;;12.10;98.60;;;;;;4975474;28;20038;-72
2022/04/24 08:08:19;;;;;;;6.90;2.90;;;12.30;97.90;;;;;;4997297;28;20046;-72
2022/04/24 08:10:56;;;;;;;6.53;3.00;;;12.20;96.70;;;;;;4975516;28;20129;-72
2022/04/24 08:13:22;;;;;;;6.28;2.72;;;12.30;98.20;;;;;;4972078;28;20031;-73
2022/04/24 08:15:49;;;;;;;6.55;3.05;;;12.30;98.60;;;;;;5021213;28;20039;-72
2022/04/24 08:18:16;;;;;;;7.80;3.05;;;12.50;96.50;;;;;;5024601;28;20376;-72
2022/04/24 08:20:42;;;;;;;5.38;2.50;;;12.60;96.70;;;;;;5024003;28;20089;-72
2022/04/24 08:23:10;;;;;;;6.55;3.45;;;12.80;96.20;;;;;;4973674;28;20043;-73
2022/04/24 08:25:36;;;;;;;6.18;2.75;;;12.80;95.50;;;;;;5004707;28;20512;-73
2022/04/24 08:28:07;;;;;;;6.75;2.58;;;12.90;97.40;;;;;;4990860;28;20482;-72
2022/04/24 08:30:34;;;;;;;8.00;2.70;;;13.10;95.80;;;;;;4975760;28;20053;-72
2022/04/24 08:33:00;;;;;;;8.00;3.15;;;13.20;96.20;;;;;;5007579;28;20491;-73
2022/04/24 08:35:26;;;;;;;6.65;2.75;;;13.20;94.50;;;;;;5024647;28;20031;-72
2022/04/24 08:37:52;;;;;;;7.43;3.72;;;13.40;96.20;;;;;;5023331;28;20482;-72
2022/04/24 08:40:20;;;;;;;5.20;2.67;;;13.40;93.30;;;;;;4975428;28;20081;-72
2022/04/24 08:42:46;;;;;;;8.02;3.17;;;13.50;95.30;;;;;;5002252;28;20046;-72
2022/04/24 08:45:14;;;;;;;7.03;2.92;;;13.60;95.40;;;;;;5010803;28;20038;-72
2022/04/24 08:47:40;;;;;;;7.25;3.10;;;13.80;95.20;;;;;;5026127;28;20034;-73
2022/04/24 08:50:07;;;;;;;6.03;2.65;;;13.90;95.30;;;;;;4976965;28;20403;-72
2022/04/24 08:52:32;;;;;;;6.43;3.55;;;14.00;94.60;;;;;;5027693;28;20046;-72
2022/04/24 08:54:59;;;;;;;8.10;3.30;;;14.00;94.40;;;;;;4993936;28;20042;-72
2022/04/24 08:57:30;;;;;;;7.28;3.00;;;14.10;94.60;;;;;;4974063;28;20046;-72
2022/04/24 08:59:57;;;;;;;6.90;3.10;;;14.10;93.50;;;;;;4998331;28;20037;-72
2022/04/24 09:02:23;;;;;;;5.75;2.75;;;14.20;93.10;;;;;;4977964;28;20030;-72
2022/04/24 09:04:49;;;;;;;5.50;2.72;;;14.30;93.30;;;;;;5026982;28;20044;-72
2022/04/24 09:07:18;;;;;;;9.48;3.30;;;14.40;93.70;;;;;;5027289;28;20046;-72
2022/04/24 09:09:46;;;;;;;7.35;3.42;;;14.50;92.40;;;;;;5010574;28;20034;-72
2022/04/24 09:12:16;;;;;;;7.32;3.17;;;14.50;91.00;;;;;;5010624;28;20077;-72
2022/04/24 09:14:49;;;;;;;7.57;3.33;;;14.60;91.40;;;;;;4986964;28;20042;-72
2022/04/24 09:17:17;;;;;;;7.38;3.35;;;14.70;90.30;;;;;;5027111;28;20034;-72
2022/04/24 09:19:43;;;;;;;6.38;2.90;;;14.60;91.00;;;;;;5027192;28;20113;-72
2022/04/24 09:22:10;;;;;;;5.55;2.70;;;14.70;91.00;;;;;;5019293;28;20126;-72
2022/04/24 09:24:49;;;;;;;7.97;2.85;;;14.90;91.90;;;;;;5010554;28;20445;-72
2022/04/24 09:27:36;;;;;;;7.40;2.95;;;15.00;91.80;;;;;;4974856;28;20050;-72
2022/04/24 09:30:11;;;;;;;8.40;3.58;;;15.10;87.30;;;;;;4993151;28;20092;-72
2022/04/24 09:32:47;;;;;;;6.45;3.05;;;15.20;90.60;;;;;;5024510;28;20074;-72
2022/04/24 09:35:42;;;;;;;6.20;3.10;;;15.20;85.30;;;;;;4994364;28;20053;-72
2022/04/24 09:38:13;;;;;;;7.82;3.28;;;15.10;88.60;;;;;;4981785;28;20515;-72
2022/04/24 09:40:57;;;;;;;6.43;3.20;;;15.10;89.80;;;;;;4977421;28;20038;-72
2022/04/24 09:43:23;;;;;;;6.90;2.80;;;15.20;84.50;;;;;;4993817;28;20035;-72
2022/04/24 09:45:56;;;;;;;8.52;3.50;;;15.30;85.70;;;;;;4987168;28;20077;-73
2022/04/24 09:48:23;;;;;;;7.90;3.70;;;15.30;83.90;;;;;;4973297;28;20468;-73
2022/04/24 09:50:49;;;;;;;8.55;2.97;;;15.30;77.20;;;;;;5009398;28;20402;-72
2022/04/24 09:53:20;;;;;;;7.28;3.13;;;15.40;81.40;;;;;;4994653;28;20056;-72
2022/04/24 09:55:49;;;;;;;6.85;2.88;;;15.40;86.30;;;;;;5026020;28;20090;-72
2022/04/24 09:58:15;;;;;;;7.47;2.75;;;15.60;86.60;;;;;;5009514;28;20034;-72
2022/04/24 10:00:42;;;;;;;5.95;2.70;;;15.70;82.60;;;;;;4976889;28;20091;-72
2022/04/24 10:03:09;;;;;;;5.40;2.28;;;15.80;80.80;;;;;;5025324;28;20034;-72
2022/04/24 10:05:38;;;;;;;6.68;2.65;;;15.90;77.10;;;;;;5004705;28;20034;-73
2022/04/24 10:08:06;;;;;;;6.57;2.90;;;15.90;77.80;;;;;;4983004;28;20307;-73
2022/04/24 10:10:32;;;;;;;5.38;2.30;;;15.90;76.20;;;;;;5009335;28;20062;-73
2022/04/24 10:13:00;;;;;;;4.75;2.13;;;15.90;75.10;;;;;;4977463;28;20070;-73
2022/04/24 10:15:28;;;;;;;5.75;2.60;;;15.90;76.90;;;;;;4989344;28;20039;-73
2022/04/24 10:18:14;;;;;;;6.47;2.53;;;15.90;73.60;;;;;;4995936;28;20050;-72
2022/04/24 10:21:16;;;;;;;6.53;2.67;;;15.90;71.90;;;;;;4989506;28;20709;-73
2022/04/24 10:23:42;;;;;;;5.60;2.72;;;15.90;70.20;;;;;;4983532;28;20063;-72
2022/04/24 10:26:18;;;;;;;7.57;3.00;;;16.10;73.00;;;;;;4976535;28;20477;-72
2022/04/24 10:28:46;;;;;;;7.03;2.90;;;16.20;70.30;;;;;;5009181;28;20038;-73
2022/04/24 10:31:12;;;;;;;7.55;3.33;;;16.00;68.80;;;;;;5025217;28;20042;-73
2022/04/24 10:33:40;;;;;;;6.80;2.40;;;16.00;70.30;;;;;;4992071;28;20034;-73
2022/04/24 10:36:05;;;;;;;5.90;3.10;;;16.10;70.90;;;;;;5025075;28;20394;-73
2022/04/24 10:38:33;;;;;;;7.25;3.15;;;16.00;70.30;;;;;;4976475;28;20035;-73
2022/04/24 10:41:05;;;;;;;7.28;2.88;;;16.10;69.50;;;;;;5000464;28;20034;-73
2022/04/24 10:43:39;;;;;;;5.93;2.70;;;16.30;73.90;;;;;;5015255;28;20039;-73
2022/04/24 10:46:26;;;;;;;8.30;3.30;;;16.50;75.20;;;;;;4992652;28;20061;-73
2022/04/24 10:48:52;;;;;;;7.00;3.08;;;16.60;73.30;;;;;;4988833;28;20038;-72
2022/04/24 10:51:29;;;;;;;6.28;2.40;;;16.70;70.90;;;;;;4992338;28;20133;-73
2022/04/24 10:54:05;;;;;;;4.68;2.63;;;16.70;73.60;;;;;;4976320;28;20042;-72
2022/04/24 10:56:31;;;;;;;7.50;2.75;;;16.80;70.90;;;;;;4975870;28;20038;-73
2022/04/24 10:59:16;;;;;;;5.07;2.63;;;16.80;69.70;;;;;;5007414;28;20113;-73
2022/04/24 11:01:48;;;;;;;7.25;3.00;;;16.80;66.70;;;;;;4998329;28;20034;-73
2022/04/24 11:04:14;;;;;;;5.15;2.45;;;16.70;65.50;;;;;;4995856;28;20498;-73
2022/04/24 11:06:55;;;;;;;6.57;3.15;;;16.70;67.30;;;;;;5010825;28;20034;-73
2022/04/24 11:09:22;;;;;;;8.02;2.90;;;16.80;67.50;;;;;;5012936;28;20038;-73
2022/04/24 11:12:01;;;;;;;7.88;2.83;;;16.70;67.80;;;;;;4979037;28;20041;-72
2022/04/24 11:14:28;;;;;;;4.90;1.98;;;16.60;68.80;;;;;;4987987;28;20446;-72
2022/04/24 11:16:57;;;;;;;5.43;2.15;;;16.60;62.70;;;;;;4977465;28;20042;-73
2022/04/24 11:19:27;;;;;;;4.45;2.10;;;16.50;63.90;;;;;;4976684;28;20038;-73
2022/04/24 11:22:01;;;;;;;4.43;2.03;;;16.30;61.30;;;;;;5000914;28;20105;-74
2022/04/24 11:24:29;;;;;;;3.60;2.20;;;16.50;61.20;;;;;;5022177;28;20074;-74
2022/04/24 11:26:56;;;;;;;8.10;2.78;;;16.40;62.10;;;;;;5024451;28;20038;-74
2022/04/24 11:29:22;;;;;;;5.22;2.28;;;16.50;65.40;;;;;;4999274;28;20117;-74
2022/04/24 11:31:50;;;;;;;6.05;2.63;;;16.60;68.20;;;;;;4988159;28;20451;-73
2022/04/24 11:34:20;;;;;;;5.80;2.72;;;16.60;66.60;;;;;;5010569;28;20041;-73
2022/04/24 11:36:47;;;;;;;5.93;2.55;;;16.60;66.00;;;;;;4995665;28;20045;-73
2022/04/24 11:39:14;;;;;;;4.88;2.40;;;16.40;66.40;;;;;;5010848;28;20415;-73
2022/04/24 11:41:40;;;;;;;6.50;2.80;;;16.10;64.50;;;;;;4989520;28;20038;-73
2022/04/24 11:52:26;;;;;;;5.72;2.45;;;15.80;70.60;;;;;;5005709;28;20054;-73
2022/04/24 11:54:52;;;;;;;6.25;2.40;;;15.90;69.00;;;;;;4977693;28;20088;-73
2022/04/24 11:57:19;;;;;;;8.18;2.50;;;16.00;67.50;;;;;;4972190;28;20074;-73
2022/04/24 11:59:57;;;;;;;4.88;2.28;;;15.90;65.50;;;;;;4992442;28;20044;-73
2022/04/24 12:02:27;;;;;;;5.35;2.40;;;16.00;66.70;;;;;;4972737;28;20091;-72
2022/04/24 12:04:54;;;;;;;5.35;2.60;;;16.20;66.70;;;;;;4997048;28;20059;-72
2022/04/24 12:07:27;;;;;;;6.32;2.47;;;16.10;63.60;;;;;;4972509;28;20097;-72
2022/04/24 12:10:02;;;;;;;4.90;2.63;;;16.30;66.40;;;;;;4997882;28;20503;-73
2022/04/24 12:12:28;;;;;;;6.75;2.75;;;16.20;68.20;;;;;;5003495;28;20049;-73
2022/04/24 12:14:54;;;;;;;6.65;2.83;;;16.30;66.60;;;;;;5013373;28;20042;-73
2022/04/24 12:17:22;;;;;;;5.38;2.17;;;16.10;68.60;;;;;;5024987;28;20049;-72
2022/04/24 12:19:56;;;;;;;5.35;2.72;;;16.00;67.60;;;;;;5015867;28;20174;-72
2022/04/24 12:22:37;;;;;;;4.32;2.25;;;16.10;66.80;;;;;;4991646;28;20042;-73
2022/04/24 12:25:08;;;;;;;4.75;2.47;;;16.10;68.20;;;;;;4990626;28;20039;-73
2022/04/24 12:27:34;;;;;;;5.85;2.72;;;16.10;65.90;;;;;;4975607;28;20054;-72
2022/04/24 12:30:02;;;;;;;5.65;2.63;;;16.30;65.00;;;;;;4989454;28;20097;-72
2022/04/24 12:32:27;;;;;;;5.57;2.85;;;16.30;64.90;;;;;;5008629;28;20049;-72
2022/04/24 12:34:53;;;;;;;5.70;2.75;;;16.40;70.50;;;;;;5013506;28;20058;-73
2022/04/24 12:37:30;;;;;;;5.90;2.58;;;16.40;68.20;;;;;;4984216;28;20403;-73
2022/04/24 12:39:56;;;;;;;6.40;2.60;;;16.50;70.60;;;;;;4989611;28;20046;-73
2022/04/24 12:42:22;;;;;;;8.95;3.90;;;16.60;70.10;;;;;;4967942;28;20039;-72
2022/04/24 12:44:48;;;;;;;7.32;3.00;;;16.70;68.10;;;;;;4975655;28;20122;-73
2022/04/24 12:47:14;;;;;;;7.93;3.35;;;16.70;69.70;;;;;;4975272;28;20502;-73
2022/04/24 12:49:40;;;;;;;7.90;3.08;;;16.60;67.20;;;;;;4973122;28;20513;-73
2022/04/24 12:52:07;;;;;;;7.63;3.10;;;16.50;67.70;;;;;;5007906;28;20043;-72
2022/04/24 12:54:33;;;;;;;6.13;3.10;;;16.20;65.70;;;;;;4988993;28;20118;-72
2022/04/24 12:56:58;;;;;;;6.50;3.40;;;16.00;70.30;;;;;;4971547;28;20451;-72
2022/04/24 12:59:24;;;;;;;7.53;3.55;;;16.00;74.20;;;;;;5008674;28;20039;-72